createdAt,value
2023-01-11T00:01:00.758Z,18.30
2023-01-11T00:03:30.079Z,18.60
2023-01-11T00:05:59.387Z,18.10
2023-01-11T00:08:28.431Z,18.66
2023-01-11T00:10:56.153Z,18.56
2023-01-11T00:13:30.344Z,18.63
2023-01-11T00:16:05.115Z,18.33
2023-01-11T00:18:33.164Z,18.53
2023-01-11T00:21:05.989Z,18.67
2023-01-11T00:23:37.755Z,18.66
2023-01-11T00:26:11.404Z,18.11
2023-01-11T00:28:39.216Z,18.46
2023-01-11T00:31:07.126Z,18.51
2023-01-11T00:33:35.145Z,18.60
2023-01-11T00:36:02.767Z,18.27
2023-01-11T00:38:51.776Z,18.12
2023-01-11T00:41:40.022Z,18.61
2023-01-11T00:44:28.674Z,18.48
2023-01-11T00:47:15.239Z,18.49
2023-01-11T00:49:43.974Z,18.04
2023-01-11T00:52:11.975Z,18.38
2023-01-11T00:54:40.819Z,18.57
2023-01-11T00:57:08.933Z,18.57
2023-01-11T00:59:40.495Z,18.26
2023-01-11T01:02:09.832Z,18.31
2023-01-11T01:04:38.749Z,18.52
2023-01-11T01:07:07.412Z,18.52
2023-01-11T01:09:35.249Z,18.34
2023-01-11T01:12:03.302Z,18.40
2023-01-11T01:14:33.356Z,18.50
2023-01-11T01:17:04.267Z,18.24
2023-01-11T01:19:32.382Z,18.43
2023-01-11T01:22:00.666Z,18.42
2023-01-11T01:24:29.462Z,18.43
2023-01-11T01:26:58.349Z,18.07
2023-01-11T01:29:26.575Z,17.94
2023-01-11T01:31:54.512Z,18.32
2023-01-11T01:34:22.344Z,18.42
2023-01-11T01:36:50.120Z,18.42
2023-01-11T01:39:17.959Z,18.42
2023-01-11T01:41:45.763Z,18.07
2023-01-11T01:44:51.127Z,18.43
2023-01-11T01:47:22.860Z,18.44
2023-01-11T01:49:51.159Z,18.36
2023-01-11T01:52:19.494Z,18.36
2023-01-11T01:54:49.397Z,18.26
2023-01-11T01:57:23.888Z,18.39
2023-01-11T01:59:56.606Z,18.30
2023-01-11T02:02:25.662Z,18.38
2023-01-11T02:04:56.972Z,18.33
2023-01-11T02:07:33.353Z,17.94
2023-01-11T02:10:05.108Z,18.40
2023-01-11T02:12:42.156Z,18.23
2023-01-11T02:15:11.289Z,18.41
2023-01-11T02:17:43.220Z,18.40
2023-01-11T02:20:29.395Z,18.41
2023-01-11T02:23:27.732Z,18.42
2023-01-11T02:25:59.292Z,18.37
2023-01-11T02:28:42.307Z,18.36
2023-01-11T02:31:14.092Z,17.97
2023-01-11T02:33:47.958Z,18.33
2023-01-11T02:36:44.575Z,17.97
2023-01-11T02:39:55.197Z,18.01
2023-01-11T02:42:55.601Z,18.31
2023-01-11T02:45:52.364Z,17.92
2023-01-11T02:48:36.654Z,18.17
2023-01-11T02:51:52.593Z,18.30
2023-01-11T02:54:23.196Z,18.31
2023-01-11T02:56:56.321Z,17.88
2023-01-11T02:59:35.278Z,18.21
2023-01-11T03:02:03.564Z,18.05
2023-01-11T03:04:32.328Z,18.29
2023-01-11T03:07:21.770Z,18.29
2023-01-11T03:10:12.427Z,18.26
2023-01-11T03:13:04.759Z,18.10
2023-01-11T03:15:51.143Z,18.30
2023-01-11T03:18:28.423Z,18.33
2023-01-11T03:21:14.884Z,18.30
2023-01-11T03:23:56.089Z,18.13
2023-01-11T03:27:01.590Z,18.27
2023-01-11T03:29:39.874Z,18.08
2023-01-11T03:32:30.414Z,18.22
2023-01-11T03:35:16.337Z,18.30
2023-01-11T03:38:32.960Z,18.17
2023-01-11T03:41:08.394Z,18.06
2023-01-11T03:43:39.210Z,18.23
2023-01-11T03:46:18.922Z,18.31
2023-01-11T03:48:54.054Z,17.99
2023-01-11T03:51:28.052Z,18.31
2023-01-11T03:54:00.617Z,18.17
2023-01-11T03:56:36.995Z,17.69
2023-01-11T03:59:05.153Z,17.63
2023-01-11T04:01:33.075Z,18.31
2023-01-11T04:04:00.859Z,18.22
2023-01-11T04:06:29.638Z,18.35
2023-01-11T04:08:57.333Z,18.08
2023-01-11T04:11:25.014Z,17.80
2023-01-11T04:13:52.840Z,18.20
2023-01-11T04:16:20.636Z,18.36
2023-01-11T04:18:48.280Z,18.38
2023-01-11T04:21:16.469Z,18.16
2023-01-11T04:23:44.285Z,18.33
2023-01-11T04:26:12.076Z,18.23
2023-01-11T04:28:39.916Z,18.00
2023-01-11T04:31:07.706Z,18.26
2023-01-11T04:33:35.591Z,17.99
2023-01-11T04:36:08.178Z,18.33
2023-01-11T04:38:36.174Z,18.23
2023-01-11T04:41:33.548Z,18.26
2023-01-11T04:44:01.264Z,17.99
2023-01-11T04:46:29.363Z,17.88
2023-01-11T04:48:57.054Z,18.29
2023-01-11T04:51:25.163Z,18.30
2023-01-11T04:53:53.105Z,17.77
2023-01-11T04:56:20.891Z,17.63
2023-01-11T04:58:48.582Z,18.22
2023-01-11T05:01:18.473Z,18.30
2023-01-11T05:03:46.617Z,18.21
2023-01-11T05:06:15.633Z,18.26
2023-01-11T05:08:47.702Z,18.34
2023-01-11T05:11:18.983Z,18.08
2023-01-11T05:13:47.610Z,17.88
2023-01-11T05:16:24.325Z,18.29
2023-01-11T05:18:59.571Z,18.30
2023-01-11T05:21:31.387Z,18.21
2023-01-11T05:24:01.882Z,17.94
2023-01-11T05:26:34.592Z,18.32
2023-01-11T05:29:05.833Z,18.05
2023-01-11T05:31:36.201Z,18.32
2023-01-11T05:34:06.986Z,18.37
2023-01-11T05:36:36.200Z,18.33
2023-01-11T05:39:05.361Z,18.37
2023-01-11T05:41:33.669Z,18.43
2023-01-11T05:44:20.708Z,18.21
2023-01-11T05:46:48.616Z,18.33
2023-01-11T05:49:17.162Z,18.22
2023-01-11T05:51:45.251Z,18.36
2023-01-11T05:54:16.269Z,18.48
2023-01-11T05:56:44.530Z,17.69
2023-01-11T05:59:12.646Z,18.39
2023-01-11T06:01:42.315Z,18.45
2023-01-11T06:04:10.974Z,18.13
2023-01-11T06:06:39.246Z,18.33
2023-01-11T06:09:07.467Z,17.92
2023-01-11T06:11:35.217Z,18.33
2023-01-11T06:14:03.057Z,18.44
2023-01-11T06:16:30.875Z,18.46
2023-01-11T06:18:58.642Z,18.47
2023-01-11T06:21:26.363Z,18.49
2023-01-11T06:23:54.755Z,18.44
2023-01-11T06:26:23.519Z,18.51
2023-01-11T06:28:51.599Z,18.41
2023-01-11T06:31:19.934Z,18.44
2023-01-11T06:33:48.070Z,18.36
2023-01-11T06:36:16.393Z,18.59
2023-01-11T06:38:45.085Z,18.64
2023-01-11T06:41:13.774Z,18.63
2023-01-11T06:43:42.596Z,18.15
2023-01-11T06:46:15.453Z,18.63
2023-01-11T06:48:44.214Z,18.52
2023-01-11T06:51:13.127Z,18.27
2023-01-11T06:53:42.502Z,18.59
2023-01-11T06:56:13.891Z,18.52
2023-01-11T06:58:41.670Z,18.52
2023-01-11T07:01:09.697Z,18.60
2023-01-11T07:03:40.184Z,18.28
2023-01-11T07:06:08.082Z,18.57
2023-01-11T07:08:35.892Z,18.59
2023-01-11T07:11:04.154Z,18.39
2023-01-11T07:13:31.876Z,18.26
2023-01-11T07:15:59.787Z,18.60
2023-01-11T07:18:27.611Z,18.42
2023-01-11T07:20:55.398Z,18.49
2023-01-11T07:23:23.001Z,18.14
2023-01-11T07:25:50.744Z,18.11
2023-01-11T07:28:19.329Z,18.39
2023-01-11T07:31:02.671Z,18.44
2023-01-11T07:33:30.428Z,18.36
2023-01-11T07:36:00.783Z,18.41
2023-01-11T07:38:29.619Z,18.24
2023-01-11T07:40:57.448Z,18.28
2023-01-11T07:43:25.259Z,18.28
2023-01-11T07:45:53.515Z,18.07
2023-01-11T07:48:26.478Z,18.22
2023-01-11T07:50:55.156Z,18.36
2023-01-11T07:53:26.408Z,18.08
2023-01-11T07:55:57.576Z,18.25
2023-01-11T07:58:25.472Z,17.98
2023-01-11T08:00:53.284Z,18.28
2023-01-11T08:03:21.432Z,17.92
2023-01-11T08:05:52.795Z,18.45
2023-01-11T08:08:21.593Z,18.45
2023-01-11T08:11:12.482Z,18.54
2023-01-11T08:13:59.016Z,18.42
2023-01-11T08:16:28.491Z,18.31
2023-01-11T08:18:56.386Z,18.16
2023-01-11T08:21:24.038Z,18.39
2023-01-11T08:23:54.423Z,18.11
2023-01-11T08:26:26.616Z,18.68
2023-01-11T08:28:55.452Z,18.33
2023-01-11T08:31:23.614Z,18.67
2023-01-11T08:33:51.757Z,18.64
2023-01-11T08:36:19.624Z,18.67
2023-01-11T08:38:47.727Z,18.68
2023-01-11T08:41:15.451Z,18.78
2023-01-11T08:43:43.568Z,18.68
2023-01-11T08:46:11.780Z,18.60
2023-01-11T08:48:39.598Z,18.47
2023-01-11T08:51:07.490Z,18.52
2023-01-11T08:53:35.394Z,18.42
2023-01-11T08:56:03.376Z,18.67
2023-01-11T08:58:32.674Z,18.40
2023-01-11T09:01:03.097Z,17.89
2023-01-11T09:03:31.294Z,18.68
2023-01-11T09:05:58.988Z,18.52
2023-01-11T09:08:27.874Z,18.67
2023-01-11T09:11:00.228Z,18.53
2023-01-11T09:13:28.299Z,18.60
2023-01-11T09:15:57.674Z,18.87
2023-01-11T09:18:27.212Z,18.60
2023-01-11T09:20:55.310Z,18.62
2023-01-11T09:23:23.193Z,18.61
2023-01-11T09:25:51.155Z,18.83
2023-01-11T09:28:18.918Z,18.46
2023-01-11T09:30:46.652Z,18.75
2023-01-11T09:33:14.871Z,18.80
2023-01-11T09:35:42.969Z,18.27
2023-01-11T09:38:10.752Z,18.82
2023-01-11T09:41:09.276Z,18.89
2023-01-11T09:43:45.775Z,18.94
2023-01-11T09:46:14.570Z,18.69
2023-01-11T09:48:47.409Z,18.65
2023-01-11T09:51:16.633Z,18.48
2023-01-11T09:53:50.934Z,18.90
2023-01-11T09:56:25.691Z,18.90
2023-01-11T09:58:59.615Z,18.88
2023-01-11T10:01:37.997Z,18.85
2023-01-11T10:04:20.724Z,18.86
2023-01-11T10:06:48.558Z,18.85
2023-01-11T10:18:28.619Z,18.94
2023-01-11T10:19:34.910Z,19.29
2023-01-11T10:22:12.292Z,19.56
2023-01-11T10:24:45.670Z,19.49
2023-01-11T10:27:32.711Z,18.94
2023-01-11T10:30:24.226Z,19.42
2023-01-11T10:33:01.798Z,18.64
2023-01-11T10:36:06.135Z,19.26
2023-01-11T10:39:14.055Z,18.96
2023-01-11T10:41:52.553Z,19.20
2023-01-11T10:44:31.515Z,19.19
2023-01-11T10:47:02.402Z,19.09
2023-01-11T10:50:09.112Z,19.01
2023-01-11T10:52:48.108Z,19.19
2023-01-11T10:55:25.038Z,19.19
2023-01-11T10:58:04.816Z,19.29
2023-01-11T11:00:45.134Z,19.30
2023-01-11T11:03:27.370Z,19.28
2023-01-11T11:06:24.962Z,19.26
2023-01-11T11:09:01.094Z,19.11
2023-01-11T11:11:58.723Z,19.42
2023-01-11T11:14:51.692Z,18.89
2023-01-11T11:17:20.330Z,19.36
2023-01-11T11:19:48.287Z,19.00
2023-01-11T11:22:16.250Z,18.95
2023-01-11T11:25:03.892Z,19.35
2023-01-11T11:27:40.524Z,19.34
2023-01-11T11:30:12.445Z,19.36
2023-01-11T11:32:54.953Z,19.29
2023-01-11T11:35:34.310Z,19.19
2023-01-11T11:38:02.587Z,19.13
2023-01-11T11:40:33.993Z,19.08
2023-01-11T11:43:20.806Z,19.29
2023-01-11T11:45:54.485Z,19.10
2023-01-11T11:48:24.058Z,18.88
2023-01-11T11:50:58.448Z,18.81
2023-01-11T11:53:47.226Z,19.31
2023-01-11T11:56:17.085Z,19.29
2023-01-11T11:58:46.184Z,19.26
2023-01-11T12:01:27.828Z,19.21
2023-01-11T12:04:03.797Z,18.97
2023-01-11T12:06:31.851Z,18.94
2023-01-11T12:09:03.007Z,19.15
2023-01-11T12:11:38.052Z,18.86
2023-01-11T12:14:12.864Z,19.23
2023-01-11T12:16:42.733Z,18.78
2023-01-11T12:19:35.208Z,18.97
2023-01-11T12:22:29.477Z,19.24
2023-01-11T12:25:28.914Z,19.25
2023-01-11T12:28:28.354Z,19.21
2023-01-11T12:31:10.409Z,19.24
2023-01-11T12:34:12.427Z,19.22
2023-01-11T12:37:01.928Z,19.13
2023-01-11T12:39:42.576Z,19.23
2023-01-11T12:42:19.390Z,19.24
2023-01-11T12:44:53.045Z,19.23
2023-01-11T12:48:04.524Z,19.08
2023-01-11T12:50:43.359Z,19.22
2023-01-11T12:53:36.531Z,19.23
2023-01-11T12:57:09.189Z,19.22
2023-01-11T13:00:01.660Z,19.22
2023-01-11T13:02:50.486Z,19.21
2023-01-11T13:05:56.154Z,19.23
2023-01-11T13:09:01.733Z,19.23
2023-01-11T13:11:59.056Z,19.24
2023-01-11T13:14:35.994Z,19.25
2023-01-11T13:17:21.357Z,19.20
2023-01-11T13:20:07.881Z,19.18
2023-01-11T13:22:40.926Z,18.87
2023-01-11T13:25:21.405Z,19.13
2023-01-11T13:27:51.447Z,18.78
2023-01-11T13:30:20.551Z,19.17
2023-01-11T13:33:14.373Z,19.03
2023-01-11T13:35:50.242Z,19.31
2023-01-11T13:38:34.672Z,19.33
2023-01-11T13:41:34.852Z,19.14
2023-01-11T13:44:08.476Z,19.25
2023-01-11T13:47:14.087Z,19.33
2023-01-11T13:49:51.839Z,19.36
2023-01-11T13:52:27.974Z,19.18
2023-01-11T13:55:04.232Z,19.22
2023-01-11T13:58:01.152Z,19.33
2023-01-11T14:00:41.708Z,18.98
2023-01-11T14:03:31.377Z,19.27
2023-01-11T14:06:06.451Z,19.28
2023-01-11T14:08:49.338Z,19.31
2023-01-11T14:11:17.157Z,19.31
2023-01-11T14:14:09.431Z,19.35
2023-01-11T14:16:59.240Z,19.34
2023-01-11T14:19:38.497Z,19.32
2023-01-11T14:22:34.701Z,19.22
2023-01-11T14:25:15.429Z,19.12
2023-01-11T14:28:01.288Z,19.31
2023-01-11T14:30:53.176Z,19.22
2023-01-11T14:33:44.106Z,19.32
2023-01-11T14:36:58.211Z,19.27
2023-01-11T14:40:07.399Z,19.24
2023-01-11T14:42:50.206Z,19.30
2023-01-11T14:45:43.643Z,19.16
2023-01-11T14:48:34.702Z,19.30
2023-01-11T14:51:33.212Z,19.03
2023-01-11T14:54:31.219Z,19.33
2023-01-11T14:57:00.513Z,18.69
2023-01-11T14:59:31.277Z,19.32
2023-01-11T15:02:05.511Z,19.33
2023-01-11T15:05:00.265Z,19.34
2023-01-11T15:07:41.024Z,19.02
2023-01-11T15:10:30.437Z,19.33
2023-01-11T15:12:58.742Z,18.89
2023-01-11T15:15:47.663Z,18.16
2023-01-11T15:18:18.859Z,19.23
2023-01-11T15:21:06.809Z,18.95
2023-01-11T15:23:37.951Z,19.16
2023-01-11T15:26:11.025Z,19.26
2023-01-11T15:28:51.755Z,19.33
2023-01-11T15:31:34.529Z,19.33
2023-01-11T15:34:05.782Z,19.35
2023-01-11T15:36:58.636Z,19.33
2023-01-11T15:39:51.360Z,19.32
2023-01-11T15:42:50.141Z,19.31
2023-01-11T15:46:03.839Z,19.32
2023-01-11T15:49:09.264Z,19.31
2023-01-11T15:51:52.096Z,19.11
2023-01-11T15:54:54.076Z,19.08
2023-01-11T15:57:40.092Z,19.39
2023-01-11T16:00:33.866Z,18.96
2023-01-11T16:03:20.671Z,19.42
2023-01-11T16:06:26.024Z,19.43
2023-01-11T16:09:06.841Z,19.37
2023-01-11T16:12:00.705Z,19.12
2023-01-11T16:15:12.526Z,19.46
2023-01-11T16:17:42.041Z,19.48
2023-01-11T16:20:33.501Z,19.42
2023-01-11T16:23:04.301Z,19.39
2023-01-11T16:25:37.227Z,19.49
2023-01-11T16:28:06.110Z,19.41
2023-01-11T16:30:34.575Z,19.40
2023-01-11T16:33:15.195Z,19.46
2023-01-11T16:35:43.153Z,19.37
2023-01-11T16:38:18.552Z,19.04
2023-01-11T16:40:50.730Z,19.13
2023-01-11T16:43:25.853Z,19.18
2023-01-11T16:45:55.822Z,19.13
2023-01-11T16:48:25.773Z,18.69
2023-01-11T16:51:07.826Z,19.41
2023-01-11T16:53:40.168Z,19.27
2023-01-11T16:56:13.050Z,19.39
2023-01-11T16:58:41.057Z,19.09
2023-01-11T17:01:14.872Z,19.29
2023-01-11T17:03:49.530Z,19.39
2023-01-11T17:06:22.547Z,19.05
2023-01-11T17:08:53.084Z,19.17
2023-01-11T17:11:42.603Z,19.38
2023-01-11T17:14:24.577Z,19.36
2023-01-11T17:16:59.253Z,19.34
2023-01-11T17:19:35.560Z,18.79
2023-01-11T17:22:22.395Z,19.13
2023-01-11T17:24:59.122Z,19.17
2023-01-11T17:27:35.971Z,18.66
2023-01-11T17:30:05.912Z,19.32
2023-01-11T17:32:42.463Z,19.31
2023-01-11T17:35:22.740Z,19.21
2023-01-11T17:37:58.277Z,19.13
2023-01-11T17:40:32.136Z,19.28
2023-01-11T17:43:40.045Z,19.25
2023-01-11T17:46:10.559Z,19.23
2023-01-11T17:48:55.967Z,19.17
2023-01-11T17:51:33.710Z,19.19
2023-01-11T17:54:01.650Z,19.27
2023-01-11T17:56:32.590Z,19.38
2023-01-11T17:59:33.350Z,19.19
2023-01-11T18:02:10.416Z,19.32
2023-01-11T18:04:40.737Z,19.02
2023-01-11T18:07:19.566Z,19.26
2023-01-11T18:09:57.506Z,19.12
2023-01-11T18:12:32.418Z,19.22
2023-01-11T18:15:02.349Z,19.10
2023-01-11T18:17:35.337Z,19.40
2023-01-11T18:20:26.201Z,19.43
2023-01-11T18:22:53.865Z,19.42
2023-01-11T18:25:24.014Z,19.42
2023-01-11T18:28:12.144Z,19.45
2023-01-11T18:30:47.093Z,19.36
2023-01-11T18:33:22.898Z,19.42
2023-01-11T18:35:53.363Z,19.36
2023-01-11T18:38:30.657Z,19.32
2023-01-11T18:41:20.737Z,19.29
2023-01-11T18:43:49.534Z,19.19
2023-01-11T18:46:20.285Z,18.96
2023-01-11T18:48:48.576Z,19.22
2023-01-11T18:51:41.915Z,18.94
2023-01-11T18:54:16.120Z,19.12
2023-01-11T18:56:43.923Z,19.03
2023-01-11T18:59:11.872Z,19.06
2023-01-11T19:01:54.398Z,19.13
2023-01-11T19:04:27.496Z,19.27
2023-01-11T19:06:55.625Z,19.34
2023-01-11T19:09:23.727Z,18.71
2023-01-11T19:11:52.231Z,19.29
2023-01-11T19:14:21.335Z,19.20
2023-01-11T19:16:51.610Z,19.08
2023-01-11T19:19:19.581Z,19.27
2023-01-11T19:21:47.769Z,19.27
2023-01-11T19:24:17.643Z,19.26
2023-01-11T19:26:45.830Z,19.38
2023-01-11T19:29:17.381Z,19.33
2023-01-11T19:31:52.712Z,19.42
2023-01-11T19:34:25.516Z,19.29
2023-01-11T19:36:56.408Z,19.42
2023-01-11T19:39:24.869Z,19.44
2023-01-11T19:42:04.531Z,19.18
2023-01-11T19:44:39.593Z,19.37
2023-01-11T19:47:13.141Z,19.31
2023-01-11T19:49:44.130Z,19.29
2023-01-11T19:52:19.346Z,19.52
2023-01-11T19:54:47.869Z,19.39
2023-01-11T19:57:21.349Z,19.61
2023-01-11T19:59:52.345Z,19.09
2023-01-11T20:02:22.389Z,19.40
2023-01-11T20:04:50.969Z,19.53
2023-01-11T20:07:18.924Z,19.41
2023-01-11T20:09:49.044Z,19.43
2023-01-11T20:12:20.191Z,19.33
2023-01-11T20:14:48.522Z,19.16
2023-01-11T20:17:22.973Z,19.53
2023-01-11T20:19:54.897Z,19.36
2023-01-11T20:22:24.263Z,18.88
2023-01-11T20:24:53.494Z,19.51
2023-01-11T20:27:21.766Z,19.50
2023-01-11T20:30:02.468Z,19.49
2023-01-11T20:32:41.423Z,19.31
2023-01-11T20:35:13.645Z,19.14
2023-01-11T20:37:44.271Z,19.23
2023-01-11T20:40:14.229Z,19.23
2023-01-11T20:42:43.170Z,19.44
2023-01-11T20:45:38.529Z,19.36
2023-01-11T20:48:35.921Z,19.37
2023-01-11T20:51:04.026Z,19.35
2023-01-11T20:53:32.632Z,19.21
2023-01-11T20:56:07.989Z,19.38
2023-01-11T20:58:38.136Z,18.99
2023-01-11T21:01:10.930Z,19.39
2023-01-11T21:03:39.342Z,19.40
2023-01-11T21:06:15.578Z,19.20
2023-01-11T21:09:00.584Z,18.72
2023-01-11T21:11:32.372Z,18.46
2023-01-11T21:14:08.954Z,18.71
2023-01-11T21:16:44.920Z,19.13
2023-01-11T21:19:23.902Z,19.35
2023-01-11T21:21:57.525Z,19.37
2023-01-11T21:24:27.180Z,19.43
2023-01-11T21:27:08.329Z,19.43
2023-01-11T21:29:51.257Z,19.37
2023-01-11T21:32:19.844Z,18.86
2023-01-11T21:34:51.150Z,17.78
2023-01-11T21:37:25.201Z,17.85
2023-01-11T21:39:58.542Z,18.76
2023-01-11T21:42:26.761Z,19.02
2023-01-11T21:44:58.083Z,18.88
2023-01-11T21:47:32.234Z,18.81
2023-01-11T21:50:03.108Z,18.98
2023-01-11T21:52:35.532Z,19.20
2023-01-11T21:55:04.213Z,19.14
2023-01-11T21:57:32.289Z,18.86
2023-01-11T22:00:05.680Z,19.06
2023-01-11T22:02:53.073Z,19.14
2023-01-11T22:05:21.527Z,19.26
2023-01-11T22:07:56.258Z,18.61
2023-01-11T22:10:28.022Z,19.28
2023-01-11T22:12:58.155Z,18.72
2023-01-11T22:15:28.372Z,18.67
2023-01-11T22:18:02.543Z,19.18
2023-01-11T22:20:31.671Z,19.05
2023-01-11T22:23:08.681Z,18.90
2023-01-11T22:25:41.177Z,17.44
2023-01-11T22:28:09.551Z,19.13
2023-01-11T22:30:37.583Z,19.09
2023-01-11T22:33:07.677Z,19.09
2023-01-11T22:35:45.748Z,18.48
2023-01-11T22:38:25.835Z,18.66
2023-01-11T22:41:05.355Z,19.03
2023-01-11T22:43:33.562Z,18.86
2023-01-11T22:46:04.725Z,18.59
2023-01-11T22:48:35.753Z,18.99
2023-01-11T22:51:09.796Z,18.31
2023-01-11T22:53:49.959Z,19.07
2023-01-11T22:56:32.492Z,19.03
2023-01-11T22:59:12.949Z,19.10
2023-01-11T23:01:52.390Z,18.75
2023-01-11T23:04:33.897Z,18.99
2023-01-11T23:07:05.128Z,18.96
2023-01-11T23:09:44.694Z,18.93
2023-01-11T23:12:34.224Z,18.96
2023-01-11T23:15:05.598Z,18.85
2023-01-11T23:17:34.721Z,18.52
2023-01-11T23:20:08.725Z,17.57
2023-01-11T23:22:39.570Z,16.83
2023-01-11T23:25:11.833Z,16.55
2023-01-11T23:27:47.469Z,18.59
2023-01-11T23:30:23.130Z,18.93
2023-01-11T23:32:54.414Z,18.61
2023-01-11T23:35:22.411Z,18.95
2023-01-11T23:37:52.333Z,18.97
2023-01-11T23:40:20.522Z,18.96
2023-01-11T23:42:52.383Z,18.96
2023-01-11T23:45:20.779Z,18.95
2023-01-11T23:47:49.800Z,18.63
2023-01-11T23:50:20.263Z,18.83
2023-01-11T23:52:48.023Z,18.42
2023-01-11T23:55:16.008Z,18.42
2023-01-11T23:58:03.686Z,19.00
